createdAt,value
2023-11-25T00:03:45.373Z,51.40
2023-11-25T00:07:47.484Z,50.30
2023-11-25T00:11:49.240Z,49.85
2023-11-25T00:15:50.633Z,50.21
2023-11-25T00:19:51.943Z,49.71
2023-11-25T00:23:53.588Z,50.43
2023-11-25T00:27:54.939Z,50.95
2023-11-25T00:31:56.249Z,50.06
2023-11-25T00:35:57.668Z,50.33
2023-11-25T00:40:00.374Z,49.99
2023-11-25T00:44:04.365Z,50.42
2023-11-25T00:48:07.886Z,50.20
2023-11-25T00:52:09.612Z,49.55
2023-11-25T00:56:11.730Z,49.30
2023-11-25T01:00:17.490Z,50.23
2023-11-25T01:04:19.314Z,50.38
2023-11-25T01:08:21.356Z,49.43
2023-11-25T01:12:23.759Z,49.92
2023-11-25T01:16:26.093Z,49.35
2023-11-25T01:20:27.902Z,49.36
2023-11-25T01:24:29.680Z,49.90
2023-11-25T01:28:31.183Z,49.89
2023-11-25T01:32:32.728Z,49.58
2023-11-25T01:36:34.120Z,49.53
2023-11-25T01:40:35.537Z,49.50
2023-11-25T01:44:36.862Z,48.94
2023-11-25T01:48:38.637Z,48.86
2023-11-25T01:52:41.719Z,48.72
2023-11-25T01:56:45.582Z,48.69
2023-11-25T02:00:47.929Z,48.95
2023-11-25T02:04:49.496Z,49.04
2023-11-25T02:08:51.743Z,48.71
2023-11-25T02:12:53.087Z,49.01
2023-11-25T02:16:58.252Z,48.72
2023-11-25T02:20:59.806Z,48.76
2023-11-25T02:25:01.119Z,49.78
2023-11-25T02:29:02.578Z,49.68
2023-11-25T02:33:04.157Z,49.04
2023-11-25T02:37:08.092Z,49.03
2023-11-25T02:41:11.463Z,49.39
2023-11-25T02:45:13.232Z,49.55
2023-11-25T02:49:14.878Z,50.17
2023-11-25T02:53:16.280Z,50.28
2023-11-25T02:57:20.258Z,49.44
2023-11-25T03:01:24.752Z,49.43
2023-11-25T03:05:26.123Z,48.56
2023-11-25T03:09:29.113Z,49.81
2023-11-25T03:13:30.575Z,49.34
2023-11-25T03:17:31.978Z,49.18
2023-11-25T03:21:35.015Z,48.69
2023-11-25T03:25:36.473Z,49.32
2023-11-25T03:29:37.965Z,48.49
2023-11-25T03:33:39.600Z,49.45
2023-11-25T03:37:41.322Z,49.59
2023-11-25T03:41:42.745Z,48.71
2023-11-25T03:45:44.071Z,48.77
2023-11-25T03:49:46.135Z,49.31
2023-11-25T03:53:48.287Z,49.13
2023-11-25T03:57:49.784Z,49.53
2023-11-25T04:01:51.709Z,48.87
2023-11-25T04:05:53.383Z,49.18
2023-11-25T04:09:54.691Z,48.68
2023-11-25T04:13:58.556Z,50.01
2023-11-25T04:17:59.995Z,49.02
2023-11-25T04:22:02.464Z,49.45
2023-11-25T04:26:03.890Z,49.03
2023-11-25T04:30:06.334Z,48.47
2023-11-25T04:34:07.658Z,48.27
2023-11-25T04:38:09.317Z,48.39
2023-11-25T04:42:10.655Z,48.79
2023-11-25T04:46:12.364Z,48.63
2023-11-25T04:50:14.965Z,48.35
2023-11-25T04:54:16.409Z,48.56
2023-11-25T04:58:17.810Z,48.60
2023-11-25T05:02:19.282Z,48.42
2023-11-25T05:06:20.833Z,48.22
2023-11-25T05:10:22.440Z,48.35
2023-11-25T05:14:25.701Z,48.32
2023-11-25T05:18:27.107Z,48.36
2023-11-25T05:22:29.339Z,48.69
2023-11-25T05:26:31.006Z,48.84
2023-11-25T05:30:32.350Z,47.97
2023-11-25T05:34:33.954Z,48.63
2023-11-25T05:38:36.732Z,48.13
2023-11-25T05:42:48.366Z,48.61
2023-11-25T05:46:50.595Z,47.80
2023-11-25T05:50:52.003Z,48.67
2023-11-25T05:54:53.441Z,48.44
2023-11-25T05:58:55.100Z,49.14
2023-11-25T06:02:57.067Z,48.40
2023-11-25T06:06:58.403Z,47.63
2023-11-25T06:10:59.750Z,47.56
2023-11-25T06:15:01.577Z,47.42
2023-11-25T06:19:05.009Z,47.62
2023-11-25T06:23:06.347Z,47.45
2023-11-25T06:27:07.941Z,47.95
2023-11-25T06:31:13.541Z,46.77
2023-11-25T06:35:15.069Z,47.61
2023-11-25T06:39:20.282Z,47.45
2023-11-25T06:43:21.739Z,47.67
2023-11-25T06:47:23.469Z,46.68
2023-11-25T06:51:24.918Z,47.26
2023-11-25T06:55:26.297Z,47.45
2023-11-25T06:59:27.854Z,47.17
2023-11-25T07:03:29.218Z,48.41
2023-11-25T07:07:30.908Z,48.49
2023-11-25T07:11:32.433Z,47.93
2023-11-25T07:15:33.833Z,48.19
2023-11-25T07:19:35.171Z,48.47
2023-11-25T07:23:37.237Z,48.78
2023-11-25T07:27:39.592Z,48.29
2023-11-25T07:31:41.103Z,49.25
2023-11-25T07:35:42.524Z,49.08
2023-11-25T07:39:45.515Z,48.76
2023-11-25T07:43:47.274Z,48.62
2023-11-25T07:47:49.001Z,48.39
2023-11-25T07:51:50.745Z,48.46
2023-11-25T07:55:53.142Z,48.99
2023-11-25T07:59:54.757Z,49.35
2023-11-25T08:03:56.283Z,47.65
2023-11-25T08:07:57.911Z,47.84
2023-11-25T08:11:59.675Z,47.55
2023-11-25T08:16:02.164Z,47.00
2023-11-25T08:20:05.051Z,47.80
2023-11-25T08:24:06.871Z,47.86
2023-11-25T08:28:08.361Z,47.54
2023-11-25T08:32:10.029Z,48.71
2023-11-25T08:36:12.599Z,47.79
2023-11-25T08:40:18.200Z,47.60
2023-11-25T08:44:20.867Z,46.81
2023-11-25T08:48:22.269Z,46.90
2023-11-25T08:52:24.378Z,47.59
2023-11-25T08:56:29.720Z,48.79
2023-11-25T09:00:33.193Z,46.90
2023-11-25T09:04:37.197Z,47.21
2023-11-25T09:08:38.578Z,47.53
2023-11-25T09:12:41.155Z,49.04
2023-11-25T09:16:43.864Z,49.25
2023-11-25T09:20:46.257Z,49.20
2023-11-25T09:24:47.587Z,48.74
2023-11-25T09:28:49.046Z,47.16
2023-11-25T09:32:50.574Z,46.04
2023-11-25T09:36:51.981Z,46.51
2023-11-25T09:40:53.486Z,46.98
2023-11-25T09:44:55.922Z,45.91
2023-11-25T09:48:57.368Z,45.91
2023-11-25T09:53:00.401Z,45.31
2023-11-25T09:57:04.700Z,44.83
2023-11-25T10:01:13.271Z,43.29
2023-11-25T10:05:14.813Z,40.53
2023-11-25T10:09:16.796Z,39.05
2023-11-25T10:13:18.120Z,38.20
2023-11-25T10:17:20.957Z,37.11
2023-11-25T10:21:22.291Z,36.55
2023-11-25T10:25:24.224Z,39.02
2023-11-25T10:29:26.077Z,41.28
2023-11-25T10:33:28.524Z,41.58
2023-11-25T10:37:32.734Z,40.79
2023-11-25T10:41:35.076Z,42.01
2023-11-25T10:45:36.633Z,41.90
2023-11-25T10:49:40.131Z,37.11
2023-11-25T10:53:45.685Z,34.24
2023-11-25T10:57:53.112Z,34.41
2023-11-25T11:02:15.513Z,37.69
2023-11-25T11:06:25.062Z,39.84
2023-11-25T11:10:32.319Z,42.11
2023-11-25T11:14:37.907Z,42.03
2023-11-25T11:18:42.656Z,42.87
2023-11-25T11:22:44.274Z,42.48
2023-11-25T11:26:52.608Z,41.98
2023-11-25T11:31:31.353Z,43.67
2023-11-25T11:35:39.824Z,42.45
2023-11-25T11:39:56.169Z,43.35
2023-11-25T11:44:05.024Z,44.11
2023-11-25T11:48:14.995Z,44.23
2023-11-25T11:52:16.375Z,44.08
2023-11-25T11:56:18.573Z,44.24
2023-11-25T12:00:20.043Z,44.54
2023-11-25T12:04:22.075Z,44.03
2023-11-25T12:08:24.461Z,45.64
2023-11-25T12:12:26.184Z,44.85
2023-11-25T12:16:27.642Z,46.57
2023-11-25T12:20:29.630Z,48.04
2023-11-25T12:24:31.098Z,47.60
2023-11-25T12:28:41.440Z,47.58
2023-11-25T12:32:44.735Z,47.77
2023-11-25T12:36:46.318Z,49.43
2023-11-25T12:40:47.814Z,48.12
2023-11-25T12:44:51.444Z,47.58
2023-11-25T12:48:53.070Z,47.27
2023-11-25T12:53:09.027Z,47.49
2023-11-25T12:57:11.551Z,47.45
2023-11-25T13:01:13.728Z,47.08
2023-11-25T13:05:25.407Z,47.30
2023-11-25T13:09:34.693Z,46.14
2023-11-25T13:13:36.654Z,45.86
2023-11-25T13:17:38.102Z,46.50
2023-11-25T13:21:41.284Z,46.35
2023-11-25T13:25:42.768Z,45.70
2023-11-25T13:29:44.384Z,45.19
2023-11-25T13:33:45.936Z,45.79
2023-11-25T13:37:47.466Z,46.82
2023-11-25T13:41:48.906Z,46.46
2023-11-25T13:45:50.308Z,45.64
2023-11-25T13:49:54.642Z,45.84
2023-11-25T13:54:00.249Z,45.66
2023-11-25T13:58:01.713Z,44.90
2023-11-25T14:02:04.021Z,44.61
2023-11-25T14:06:05.983Z,45.42
2023-11-25T14:10:10.431Z,44.73
2023-11-25T14:14:13.235Z,44.63
2023-11-25T14:18:14.842Z,44.12
2023-11-25T14:22:20.090Z,45.24
2023-11-25T14:26:21.428Z,43.94
2023-11-25T14:30:24.373Z,45.29
2023-11-25T14:34:25.780Z,46.75
2023-11-25T14:38:27.151Z,46.56
2023-11-25T14:42:32.294Z,47.09
2023-11-25T14:46:34.856Z,47.00
2023-11-25T14:50:44.350Z,47.88
2023-11-25T14:54:46.043Z,48.02
2023-11-25T14:58:47.596Z,52.41
2023-11-25T15:02:50.116Z,51.62
2023-11-25T15:06:51.515Z,51.75
2023-11-25T15:10:52.956Z,51.37
2023-11-25T15:14:55.785Z,52.01
2023-11-25T15:18:57.368Z,51.71
2023-11-25T15:23:00.808Z,52.54
2023-11-25T15:27:03.182Z,52.79
2023-11-25T15:31:05.076Z,52.06
2023-11-25T15:35:08.373Z,52.66
2023-11-25T15:39:10.198Z,52.17
2023-11-25T15:43:11.517Z,52.64
2023-11-25T15:47:12.906Z,52.44
2023-11-25T15:51:14.413Z,52.90
2023-11-25T15:55:15.720Z,52.81
2023-11-25T15:59:17.054Z,53.94
2023-11-25T16:03:18.460Z,53.64
2023-11-25T16:07:21.928Z,52.14
2023-11-25T16:11:24.444Z,52.28
2023-11-25T16:15:25.954Z,52.77
2023-11-25T16:19:27.588Z,52.23
2023-11-25T16:23:29.460Z,52.93
2023-11-25T16:27:30.758Z,52.69
2023-11-25T16:31:32.405Z,52.34
2023-11-25T16:35:33.897Z,52.14
2023-11-25T16:39:37.793Z,51.87
2023-11-25T16:43:39.933Z,52.03
2023-11-25T16:47:41.391Z,52.37
2023-11-25T16:51:43.135Z,52.16
2023-11-25T16:55:44.733Z,52.26
2023-11-25T16:59:46.175Z,52.61
2023-11-25T17:03:47.885Z,52.46
2023-11-25T17:07:49.501Z,50.90
2023-11-25T17:11:50.963Z,50.58
2023-11-25T17:15:52.267Z,50.60
2023-11-25T17:19:53.789Z,50.39
2023-11-25T17:23:55.420Z,50.62
2023-11-25T17:27:57.824Z,50.47
2023-11-25T17:31:59.564Z,50.97
2023-11-25T17:36:00.938Z,50.49
2023-11-25T17:40:02.700Z,49.57
2023-11-25T17:44:04.266Z,49.40
2023-11-25T17:48:06.320Z,50.13
2023-11-25T17:52:11.216Z,49.70
2023-11-25T17:56:12.579Z,48.40
2023-11-25T18:00:14.159Z,47.54
2023-11-25T18:04:15.533Z,48.99
2023-11-25T18:08:16.907Z,50.54
2023-11-25T18:12:18.280Z,48.41
2023-11-25T18:16:19.887Z,53.39
2023-11-25T18:20:21.329Z,51.45
2023-11-25T18:24:22.691Z,50.06
2023-11-25T18:28:23.999Z,50.12
2023-11-25T18:32:25.329Z,50.66
2023-11-25T18:36:26.705Z,50.76
2023-11-25T18:40:29.307Z,50.90
2023-11-25T18:44:30.768Z,50.98
2023-11-25T18:48:35.668Z,51.66
2023-11-25T18:52:38.388Z,51.77
2023-11-25T18:56:39.776Z,50.99
2023-11-25T19:00:41.446Z,51.36
2023-11-25T19:04:42.876Z,51.44
2023-11-25T19:08:44.224Z,51.40
2023-11-25T19:12:45.612Z,50.75
2023-11-25T19:16:47.110Z,51.25
2023-11-25T19:20:48.536Z,50.20
2023-11-25T19:24:49.842Z,50.39
2023-11-25T19:28:51.582Z,50.52
2023-11-25T19:32:53.059Z,50.41
2023-11-25T19:36:54.600Z,49.62
2023-11-25T19:40:55.983Z,49.29
2023-11-25T19:44:57.520Z,49.53
2023-11-25T19:48:59.720Z,49.63
2023-11-25T19:53:01.112Z,48.86
2023-11-25T19:57:02.484Z,49.73
2023-11-25T20:01:04.084Z,49.41
2023-11-25T20:05:06.491Z,49.28
2023-11-25T20:09:09.688Z,49.03
2023-11-25T20:13:11.101Z,49.41
2023-11-25T20:17:12.620Z,49.18
2023-11-25T20:21:14.350Z,49.90
2023-11-25T20:25:15.805Z,49.77
2023-11-25T20:29:17.149Z,48.92
2023-11-25T20:33:18.558Z,48.71
2023-11-25T20:37:19.963Z,48.82
2023-11-25T20:41:21.284Z,47.66
2023-11-25T20:45:22.805Z,47.98
2023-11-25T20:49:24.481Z,48.62
2023-11-25T20:53:27.070Z,48.50
2023-11-25T20:57:28.404Z,48.47
2023-11-25T21:01:31.390Z,48.28
2023-11-25T21:05:35.790Z,48.50
2023-11-25T21:09:37.312Z,48.00
2023-11-25T21:13:40.395Z,48.47
2023-11-25T21:18:12.530Z,48.58
2023-11-25T21:22:13.980Z,48.38
2023-11-25T21:26:15.519Z,49.24
2023-11-25T21:30:20.379Z,49.05
2023-11-25T21:34:22.774Z,48.80
2023-11-25T21:38:33.623Z,48.41
2023-11-25T21:42:35.019Z,48.54
2023-11-25T21:46:36.440Z,48.76
2023-11-25T21:50:37.833Z,48.46
2023-11-25T21:54:39.269Z,48.76
2023-11-25T21:58:41.655Z,48.39
2023-11-25T22:02:43.308Z,48.61
2023-11-25T22:06:44.931Z,48.47
2023-11-25T22:10:46.653Z,48.21
2023-11-25T22:14:47.985Z,48.96
2023-11-25T22:18:51.737Z,48.80
2023-11-25T22:22:53.405Z,48.00
2023-11-25T22:27:09.283Z,48.31
2023-11-25T22:31:16.747Z,47.93
2023-11-25T22:35:20.746Z,48.37
2023-11-25T22:39:22.410Z,48.35
2023-11-25T22:43:23.759Z,48.28
2023-11-25T22:47:25.293Z,48.04
2023-11-25T22:51:27.559Z,48.33
2023-11-25T22:55:29.252Z,48.36
2023-11-25T22:59:30.688Z,48.59
2023-11-25T23:03:32.458Z,48.70
2023-11-25T23:07:33.904Z,48.35
2023-11-25T23:11:35.636Z,47.50
2023-11-25T23:15:37.201Z,47.99
2023-11-25T23:19:38.573Z,47.92
2023-11-25T23:23:46.167Z,47.91
2023-11-25T23:27:50.483Z,47.42
2023-11-25T23:31:52.177Z,47.40
2023-11-25T23:35:53.657Z,47.95
2023-11-25T23:39:55.040Z,47.68
2023-11-25T23:43:56.429Z,47.75
2023-11-25T23:47:58.308Z,47.60
2023-11-25T23:52:00.602Z,48.47
2023-11-25T23:56:02.114Z,49.00
